Apex, NC (27502)

10:51 AM EST on March 01, 2015 (GMT -0500)
Surrey Meadows | Change Station
CLOSE
Current Station
Personal Weather Station
Location: APEX, NC
Elevation: 476 ft
Nearby Weather Stations

Elev 476 ft 35.73 °N, 78.83 °W | Updated 3 minutes ago

Ice Pellets
Ice Pellets
32.9 °F
Feels Like 33 °F
N
1.7
Wind Variable Wind from East

Today
High -- | Low -- °F
--% Chance of Precip.
Yesterday
High -- | Low -- °F
Precip. -- in
6:45 AM 6:10 PM
Waxing Gibbous, 85% visible
Pressure 30.54 in
Visibility 1.5 miles
Clouds Mostly Cloudy 500 ft
Overcast 2000 ft
Windchill 33 °F
Dew Point 32 °F
Humidity 95%
Rainfall 0.02 in
Snow Depth Not available.
UV 2 out of 12
Pollen .80 out of 12
Air Quality Not available.
Flu Activity Not available.
SPECI KRDU 011537Z 06005KT 1 1/2SM -RA BR BKN005 OVC020 00/M02 A3054 RMK AO2 SFC VIS 4 P0007

More Conditions Fewer Conditions

Pressure 30.54 in
Visibility 1.5 miles
Clouds Mostly Cloudy 500 ft
Overcast 2000 ft
Windchill 33 °F
Dew Point 32 °F
Humidity 95%
Rainfall 0.02 in
Snow Depth Not available.
UV 2 out of 12
Pollen .80 out of 12
Air Quality Not available.
Flu Activity Not available.
SPECI KRDU 011537Z 06005KT 1 1/2SM -RA BR BKN005 OVC020 00/M02 A3054 RMK AO2 SFC VIS 4 P0007

More Conditions Fewer Conditions

10-Day Weather Forecast

Almanac

Astronomy

Mar. 01, 2015 Rise Set
Actual Time
Civil Twilight
Nautical Twilight
Astronomical Twilight
Moon
Length of Visible Light
Length of Day
Tomorrow will be .
, % of the Moon is Illuminated

Today's Extremes

State Highs State Lows

Community

WunderPhotos

Upload Photos

1,801,435 photos uploaded!

WunderBlogs® & News

Nearby

Air Quality

  Air Quality AQ Index Pollutant
Not available.

Snow Depth

Station Depth Elevation

Earthquake Activity

City Distance Mag. Time & Date
Minimum magnitude displayed is 2.5.

Coastal Water Temperatures

Place Temperature

Nearby Weather Stations

Winter Weather Advisory
Statement as of 10:03 AM EST on March 01, 2015

... Winter Weather Advisory remains in effect until noon EST
today...

* locations... include much of the Piedmont of NC and the
northern coastal plain.

* Hazard types... light freezing rain and freezing drizzle.

* Accumulations... a trace to five hundredths of an inch of ice
accumulation.

* Timing... through this morning.

* Impacts... a thin coating of ice on roads and sidewalks will
make travel and walking treacherous this morning.

* Temperatures... in the lower 30s.

Precautionary/preparedness actions...

This Winter Weather Advisory means that periods of freezing rain
or freezing drizzle will cause travel difficulties. Be prepared
for slippery roads... and use extra caution while driving.